Time;durP1;ratioP1;P1;durP2;ratioP2;P2;SDS_P1;SDS_P2;PMS_P1;PMS_P2;Temp;Humidity;BMP_temperature;BMP_pressure;BME280_temperature;BME280_humidity;BME280_pressure;Samples;Min_cycle;Max_cycle;Signal;HPM_P1;HPM_P2
2022/07/04 00:00:55;;;;;;;2.20;2.10;;;19.80;99.90;;;;;;4880437;29;20236;-77
2022/07/04 00:03:22;;;;;;;2.73;2.27;;;19.80;99.90;;;;;;4897109;29;20274;-76
2022/07/04 00:05:49;;;;;;;2.17;2.07;;;19.80;99.90;;;;;;4880715;29;20284;-77
2022/07/04 00:08:15;;;;;;;2.33;2.10;;;19.80;99.90;;;;;;4881937;29;20263;-76
2022/07/04 00:10:42;;;;;;;2.40;2.20;;;19.80;99.90;;;;;;4897074;29;20223;-76
2022/07/04 00:13:10;;;;;;;3.07;2.30;;;19.70;99.90;;;;;;4880260;29;20734;-75
2022/07/04 00:15:37;;;;;;;4.90;4.40;;;19.70;99.90;;;;;;4897046;29;20256;-77
2022/07/04 00:18:04;;;;;;;2.33;2.20;;;19.70;99.90;;;;;;4897142;29;20342;-77
2022/07/04 00:20:31;;;;;;;4.27;3.97;;;19.60;99.90;;;;;;4897329;29;20211;-76
2022/07/04 00:22:58;;;;;;;5.67;5.37;;;19.60;99.90;;;;;;4896731;29;20239;-76
2022/07/04 00:25:25;;;;;;;2.70;2.53;;;19.60;99.90;;;;;;4896737;29;20680;-77
2022/07/04 00:27:51;;;;;;;4.80;4.40;;;19.50;99.90;;;;;;4896883;29;20280;-76
2022/07/04 00:30:20;;;;;;;3.03;2.83;;;19.40;99.90;;;;;;4880288;29;20212;-76
2022/07/04 00:32:46;;;;;;;5.97;5.53;;;19.40;99.90;;;;;;4896734;29;20275;-76
2022/07/04 00:35:13;;;;;;;5.43;4.93;;;19.50;99.90;;;;;;4873243;29;20203;-76
2022/07/04 00:37:40;;;;;;;6.27;5.77;;;19.40;99.90;;;;;;4896790;29;20215;-76
2022/07/04 00:40:08;;;;;;;6.47;6.07;;;19.40;99.90;;;;;;4896751;29;20685;-77
2022/07/04 00:42:35;;;;;;;3.63;3.33;;;19.40;99.90;;;;;;4878997;29;20648;-76
2022/07/04 00:45:01;;;;;;;3.40;3.20;;;19.50;99.90;;;;;;4878822;29;20267;-77
2022/07/04 00:47:29;;;;;;;4.90;4.40;;;19.50;99.90;;;;;;4895721;29;20208;-77
2022/07/04 00:49:56;;;;;;;4.50;4.10;;;19.50;99.90;;;;;;4896221;29;20446;-76
2022/07/04 00:52:23;;;;;;;4.57;4.27;;;19.40;99.90;;;;;;4879917;29;20218;-77
2022/07/04 00:54:50;;;;;;;3.60;3.40;;;19.50;99.90;;;;;;4879316;29;20263;-77
2022/07/04 00:57:17;;;;;;;4.23;3.50;;;19.50;99.90;;;;;;4896348;29;20692;-77
2022/07/04 00:59:44;;;;;;;2.13;2.03;;;19.50;99.90;;;;;;4879419;29;20211;-76
2022/07/04 01:02:11;;;;;;;2.60;2.40;;;19.60;99.90;;;;;;4879701;29;20235;-76
2022/07/04 01:04:40;;;;;;;2.40;2.20;;;19.60;99.90;;;;;;4895899;29;20270;-77
2022/07/04 01:07:07;;;;;;;3.60;3.40;;;19.50;99.90;;;;;;4896462;29;20202;-77
2022/07/04 01:09:34;;;;;;;4.87;4.57;;;19.50;99.90;;;;;;4896223;29;20278;-76
2022/07/04 01:12:01;;;;;;;2.87;2.57;;;19.40;99.90;;;;;;4896150;29;20273;-76
2022/07/04 01:14:27;;;;;;;4.03;3.73;;;19.40;99.90;;;;;;4895993;29;20201;-76
2022/07/04 01:16:54;;;;;;;5.60;5.20;;;19.40;99.90;;;;;;4895956;29;20204;-76
2022/07/04 01:19:21;;;;;;;2.37;2.17;;;19.40;99.90;;;;;;4896120;29;20679;-76
2022/07/04 01:21:49;;;;;;;2.20;2.10;;;19.40;99.90;;;;;;4895967;29;20221;-77
2022/07/04 01:24:16;;;;;;;2.67;2.47;;;19.40;99.90;;;;;;4896218;29;20300;-76
2022/07/04 01:26:43;;;;;;;2.50;2.30;;;19.40;99.90;;;;;;4896107;29;20249;-76
2022/07/04 01:29:10;;;;;;;2.63;2.20;;;19.50;99.90;;;;;;4894167;29;20200;-77
2022/07/04 01:31:36;;;;;;;2.77;2.20;;;19.40;99.90;;;;;;4878951;29;20237;-76
2022/07/04 01:34:03;;;;;;;2.50;2.30;;;19.40;99.90;;;;;;4879082;29;20245;-76
2022/07/04 01:36:30;;;;;;;2.60;2.40;;;19.40;99.90;;;;;;4896467;29;20200;-77
2022/07/04 01:38:58;;;;;;;2.50;2.30;;;19.40;99.90;;;;;;4880071;29;20199;-77
2022/07/04 01:41:25;;;;;;;2.20;2.10;;;19.40;99.90;;;;;;4877308;29;20413;-77
2022/07/04 01:43:52;;;;;;;2.40;2.20;;;19.50;99.90;;;;;;4899711;29;20222;-76
2022/07/04 01:46:19;;;;;;;2.70;2.50;;;19.40;99.90;;;;;;4883037;29;20258;-77
2022/07/04 01:48:45;;;;;;;2.27;2.17;;;19.40;99.90;;;;;;4875596;29;20275;-76
2022/07/04 01:51:12;;;;;;;2.87;2.43;;;19.40;99.90;;;;;;4899882;29;20218;-76
2022/07/04 01:53:39;;;;;;;2.90;2.60;;;19.40;99.90;;;;;;4899747;29;20269;-75
2022/07/04 01:56:07;;;;;;;2.50;2.30;;;19.40;99.90;;;;;;4899725;29;20199;-76
2022/07/04 01:58:34;;;;;;;2.70;2.50;;;19.40;99.90;;;;;;4900178;29;20773;-77
2022/07/04 02:03:46;;;;;;;2.17;2.07;;;19.40;99.90;;;;;;4882639;29;20241;-77
2022/07/04 02:06:13;;;;;;;2.70;2.50;;;19.40;99.90;;;;;;4899550;29;20816;-76
2022/07/04 02:11:26;;;;;;;2.73;2.53;;;19.40;99.90;;;;;;4893393;29;20218;-76
2022/07/04 02:13:52;;;;;;;2.73;2.43;;;19.40;99.90;;;;;;4899459;29;20203;-75
2022/07/04 02:16:19;;;;;;;2.40;2.20;;;19.40;99.90;;;;;;4882610;29;20264;-76
2022/07/04 02:18:45;;;;;;;3.10;2.37;;;19.40;99.90;;;;;;4899700;29;20200;-76
2022/07/04 02:21:12;;;;;;;2.33;2.13;;;19.50;99.90;;;;;;4882430;29;20270;-76
2022/07/04 02:23:39;;;;;;;2.40;2.20;;;19.50;99.90;;;;;;4899373;29;20214;-74
2022/07/04 02:26:06;;;;;;;3.23;3.03;;;19.50;99.90;;;;;;4882346;29;20207;-76
2022/07/04 02:28:34;;;;;;;3.50;3.30;;;19.50;99.90;;;;;;4899308;29;20194;-77
2022/07/04 02:31:01;;;;;;;3.67;3.37;;;19.50;99.90;;;;;;4882221;29;20234;-76
2022/07/04 02:33:27;;;;;;;3.27;3.07;;;19.40;99.90;;;;;;4882099;29;20623;-76
2022/07/04 02:35:54;;;;;;;2.40;2.20;;;19.40;99.90;;;;;;4898994;29;20207;-77
2022/07/04 02:38:21;;;;;;;2.40;2.20;;;19.40;99.90;;;;;;4899039;29;20255;-77
2022/07/04 02:40:48;;;;;;;2.47;2.27;;;19.40;99.90;;;;;;4898998;29;20208;-76
2022/07/04 02:43:15;;;;;;;2.40;2.20;;;19.30;99.90;;;;;;4899732;29;20195;-76
2022/07/04 02:45:43;;;;;;;2.53;2.33;;;19.30;99.90;;;;;;4900547;29;20258;-77
2022/07/04 02:48:10;;;;;;;3.07;2.70;;;19.30;99.90;;;;;;4890728;29;20230;-76
2022/07/04 02:50:36;;;;;;;2.90;2.50;;;19.20;99.90;;;;;;4898539;29;20759;-76
2022/07/04 02:53:03;;;;;;;2.53;2.30;;;19.20;99.90;;;;;;4884053;29;20219;-79
2022/07/04 02:55:30;;;;;;;3.80;3.50;;;19.10;99.90;;;;;;4901865;29;20238;-79
2022/07/04 02:57:57;;;;;;;5.17;4.87;;;19.10;99.90;;;;;;4895015;29;20258;-81
2022/07/04 03:00:24;;;;;;;4.53;4.23;;;19.10;99.90;;;;;;4887094;29;20209;-82
2022/07/04 03:02:52;;;;;;;2.63;2.43;;;19.10;99.90;;;;;;4883910;29;20222;-81
2022/07/04 03:05:19;;;;;;;3.20;2.90;;;19.00;99.90;;;;;;4880152;29;20699;-81
2022/07/04 03:07:46;;;;;;;2.80;2.60;;;19.00;99.90;;;;;;4898258;29;20202;-78
2022/07/04 03:10:13;;;;;;;2.30;2.10;;;19.00;99.90;;;;;;4898984;29;20209;-80
2022/07/04 03:12:40;;;;;;;2.67;2.47;;;18.90;99.90;;;;;;4876193;29;20237;-81
2022/07/04 03:15:07;;;;;;;2.60;2.40;;;19.00;99.90;;;;;;4895482;29;20197;-80
2022/07/04 03:17:34;;;;;;;2.40;2.20;;;18.90;99.90;;;;;;4898110;29;20713;-78
2022/07/04 03:20:02;;;;;;;2.67;2.47;;;18.90;99.90;;;;;;4874818;29;20269;-81
2022/07/04 03:22:29;;;;;;;7.10;6.60;;;18.90;99.90;;;;;;4882188;29;20666;-82
2022/07/04 03:24:56;;;;;;;6.70;6.30;;;18.80;99.90;;;;;;4881142;29;20240;-82
2022/07/04 03:27:23;;;;;;;6.80;6.30;;;18.80;99.90;;;;;;4898629;29;20275;-81
2022/07/04 03:29:49;;;;;;;5.07;4.77;;;18.80;99.90;;;;;;4881789;29;20663;-81
2022/07/04 03:32:16;;;;;;;2.40;2.20;;;18.70;99.90;;;;;;4898721;29;20292;-81
2022/07/04 03:34:43;;;;;;;4.20;3.90;;;18.80;99.90;;;;;;4883583;29;20679;-81
2022/07/04 03:37:11;;;;;;;8.30;7.60;;;18.70;99.90;;;;;;4875295;29;20208;-81
2022/07/04 03:39:38;;;;;;;3.00;2.80;;;18.70;99.90;;;;;;4881707;29;20206;-81
2022/07/04 03:42:05;;;;;;;6.20;5.80;;;18.70;99.90;;;;;;4898484;29;20221;-81
2022/07/04 03:44:32;;;;;;;4.10;3.80;;;18.60;99.90;;;;;;4897855;29;20213;-79
2022/07/04 03:46:59;;;;;;;4.77;4.27;;;18.60;99.90;;;;;;4881359;29;20699;-82
2022/07/04 03:49:26;;;;;;;6.23;5.83;;;18.60;99.90;;;;;;4880592;29;20198;-82
2022/07/04 03:51:53;;;;;;;6.07;5.47;;;18.60;99.90;;;;;;4897110;29;20225;-82
2022/07/04 03:54:21;;;;;;;3.77;3.47;;;18.60;99.90;;;;;;4897123;29;20201;-82
2022/07/04 03:56:48;;;;;;;3.60;3.30;;;18.60;99.90;;;;;;4897248;29;20201;-82
2022/07/04 03:59:15;;;;;;;5.33;4.83;;;18.60;99.90;;;;;;4882729;29;20208;-82
2022/07/04 04:01:42;;;;;;;6.40;6.00;;;18.50;99.90;;;;;;4880298;29;20281;-82
2022/07/04 04:06:49;;;;;;;8.60;7.93;;;18.60;99.90;;;;;;4875427;29;20227;-81
2022/07/04 04:09:18;;;;;;;2.50;2.30;;;18.60;99.90;;;;;;4897173;29;20197;-82
2022/07/04 04:11:47;;;;;;;4.00;3.80;;;18.60;99.90;;;;;;4896909;29;20316;-80
2022/07/04 04:14:14;;;;;;;2.63;2.43;;;18.60;99.90;;;;;;4896817;29;20262;-82
2022/07/04 04:16:41;;;;;;;5.27;4.90;;;18.60;99.90;;;;;;4880414;29;20216;-82
2022/07/04 04:19:08;;;;;;;6.07;5.77;;;18.60;99.90;;;;;;4896911;29;20205;-83
2022/07/04 04:21:34;;;;;;;2.87;2.50;;;18.60;99.90;;;;;;4880077;29;20729;-81
2022/07/04 04:24:01;;;;;;;3.00;2.33;;;18.60;99.90;;;;;;4879655;29;20215;-82
2022/07/04 04:26:28;;;;;;;3.03;2.70;;;18.60;99.90;;;;;;4897164;29;20266;-81
2022/07/04 04:28:57;;;;;;;2.70;2.50;;;18.60;99.90;;;;;;4896729;29;20214;-80
2022/07/04 04:31:24;;;;;;;2.20;2.10;;;18.70;99.90;;;;;;4896641;29;20367;-80
2022/07/04 04:33:51;;;;;;;2.67;2.47;;;18.70;99.90;;;;;;4879628;29;20209;-83
2022/07/04 04:36:18;;;;;;;2.70;2.50;;;18.80;99.90;;;;;;4896679;29;20201;-81
2022/07/04 04:38:44;;;;;;;2.50;2.30;;;18.70;99.90;;;;;;4880208;29;20212;-80
2022/07/04 04:41:11;;;;;;;3.27;2.53;;;18.90;99.90;;;;;;4896605;29;20217;-80
2022/07/04 04:43:38;;;;;;;2.80;2.60;;;18.90;99.90;;;;;;4896736;29;20613;-81
2022/07/04 04:46:06;;;;;;;2.73;2.30;;;18.90;99.90;;;;;;4879690;29;20780;-81
2022/07/04 04:48:33;;;;;;;2.57;2.37;;;19.00;99.90;;;;;;4896684;29;20620;-81
2022/07/04 04:51:00;;;;;;;3.17;2.60;;;19.00;99.90;;;;;;4879615;29;20273;-82
2022/07/04 04:53:27;;;;;;;2.47;2.27;;;19.00;99.90;;;;;;4879497;29;20205;-82
2022/07/04 04:55:54;;;;;;;2.60;2.40;;;19.10;99.90;;;;;;4879939;29;20198;-81
2022/07/04 04:58:21;;;;;;;3.10;2.43;;;19.10;99.90;;;;;;4879784;29;20197;-81
2022/07/04 05:00:49;;;;;;;2.87;2.67;;;19.20;99.90;;;;;;4896940;29;20265;-81
2022/07/04 05:03:17;;;;;;;2.73;2.47;;;19.30;99.90;;;;;;4896334;29;20252;-81
2022/07/04 05:05:44;;;;;;;4.53;4.23;;;19.30;99.90;;;;;;4889012;29;20231;-83
2022/07/04 05:08:12;;;;;;;3.00;2.80;;;19.40;99.90;;;;;;4873987;29;20269;-81
2022/07/04 05:10:39;;;;;;;6.03;5.53;;;19.50;99.90;;;;;;4896534;29;20205;-81
2022/07/04 05:13:06;;;;;;;5.90;5.50;;;19.60;99.90;;;;;;4896311;29;20255;-81
2022/07/04 05:15:33;;;;;;;6.00;5.60;;;19.70;99.90;;;;;;4877758;29;20204;-81
2022/07/04 05:18:00;;;;;;;5.77;5.37;;;19.70;99.90;;;;;;4898783;29;20273;-81
2022/07/04 05:20:28;;;;;;;5.60;5.20;;;19.70;99.90;;;;;;4883321;29;20206;-81
2022/07/04 05:22:55;;;;;;;5.70;5.30;;;19.70;99.90;;;;;;4883581;29;20231;-81
2022/07/04 05:25:22;;;;;;;5.83;5.43;;;19.80;99.90;;;;;;4899938;29;20223;-81
2022/07/04 05:27:49;;;;;;;5.97;5.57;;;19.80;99.90;;;;;;4882875;29;20210;-81
2022/07/04 05:30:16;;;;;;;6.00;5.60;;;19.80;99.90;;;;;;4883031;29;20208;-80
2022/07/04 05:32:43;;;;;;;5.33;5.00;;;19.90;99.90;;;;;;4913709;23;20246;-80
2022/07/04 05:35:10;;;;;;;4.13;2.37;;;19.90;99.90;;;;;;4907090;29;20205;-79
2022/07/04 05:37:38;;;;;;;5.20;4.90;;;20.00;99.90;;;;;;4897820;29;20675;-79
2022/07/04 05:40:06;;;;;;;5.57;5.20;;;20.10;99.90;;;;;;4897987;29;20653;-79
2022/07/04 05:42:35;;;;;;;5.60;5.20;;;20.20;99.90;;;;;;4889707;29;20276;-78
2022/07/04 05:45:01;;;;;;;6.17;5.63;;;20.50;99.90;;;;;;4882951;29;20224;-79
2022/07/04 05:47:28;;;;;;;5.83;5.43;;;20.90;99.90;;;;;;4884880;29;20245;-79
2022/07/04 05:49:55;;;;;;;5.10;4.77;;;21.20;99.90;;;;;;4899720;29;20244;-79
2022/07/04 05:52:22;;;;;;;6.70;6.10;;;21.80;99.90;;;;;;4899832;29;20272;-80
2022/07/04 05:54:50;;;;;;;7.70;7.20;;;22.00;99.90;;;;;;4897007;29;20193;-80
2022/07/04 05:57:17;;;;;;;6.83;6.43;;;22.00;99.90;;;;;;4883441;29;20201;-79
2022/07/04 05:59:44;;;;;;;7.47;6.97;;;22.00;99.90;;;;;;4882418;29;20267;-79
2022/07/04 06:02:11;;;;;;;6.53;6.07;;;22.00;99.90;;;;;;4892116;29;20216;-80
2022/07/04 06:04:38;;;;;;;5.53;5.23;;;22.20;99.90;;;;;;4883536;29;20247;-80
2022/07/04 06:07:05;;;;;;;4.50;4.20;;;22.40;99.90;;;;;;4899591;29;20244;-79
2022/07/04 06:09:32;;;;;;;7.07;6.67;;;22.60;99.90;;;;;;4899445;29;20188;-79
2022/07/04 06:12:00;;;;;;;5.50;5.20;;;22.60;99.90;;;;;;4887362;29;20232;-81
2022/07/04 06:14:27;;;;;;;6.80;6.20;;;22.60;99.90;;;;;;4903186;29;20193;-80
2022/07/04 06:16:54;;;;;;;6.97;6.47;;;22.40;99.90;;;;;;4886029;29;20625;-83
2022/07/04 06:19:21;;;;;;;6.40;5.97;;;22.20;99.90;;;;;;4903309;29;20200;-81
2022/07/04 06:21:48;;;;;;;6.93;6.33;;;21.90;99.90;;;;;;4886167;29;20249;-80
2022/07/04 06:24:15;;;;;;;6.90;6.40;;;21.70;99.90;;;;;;4885311;29;20205;-81
2022/07/04 06:26:42;;;;;;;3.20;2.87;;;21.70;99.90;;;;;;4885465;29;20204;-80
2022/07/04 06:29:10;;;;;;;2.37;2.17;;;21.60;99.90;;;;;;4902635;29;20285;-81
2022/07/04 06:31:37;;;;;;;5.63;5.23;;;21.40;99.90;;;;;;4902002;29;20232;-81
2022/07/04 06:36:48;;;;;;;4.23;3.50;;;21.20;99.90;;;;;;4902543;29;20260;-81
2022/07/04 06:39:14;;;;;;;2.43;2.10;;;21.20;99.90;;;;;;4885325;29;20193;-79
2022/07/04 06:41:41;;;;;;;3.57;3.27;;;21.20;99.90;;;;;;4885330;29;20327;-80
2022/07/04 06:44:09;;;;;;;4.80;4.43;;;21.10;99.90;;;;;;4876369;29;20220;-80
2022/07/04 06:46:36;;;;;;;2.93;2.50;;;21.10;99.90;;;;;;4906591;29;20220;-79
2022/07/04 06:49:03;;;;;;;2.53;2.33;;;21.20;99.90;;;;;;4884823;29;20200;-80
2022/07/04 06:51:30;;;;;;;2.63;2.40;;;21.30;99.90;;;;;;4886269;29;20225;-81
2022/07/04 06:53:56;;;;;;;4.00;2.10;;;21.40;99.90;;;;;;4887290;29;20213;-80
2022/07/04 06:56:23;;;;;;;2.53;2.30;;;21.30;99.90;;;;;;4888562;29;20199;-80
2022/07/04 06:58:50;;;;;;;4.10;2.47;;;21.30;99.90;;;;;;4887269;29;20236;-80
2022/07/04 07:01:18;;;;;;;2.73;2.53;;;21.30;99.90;;;;;;4905678;29;20658;-80
2022/07/04 07:03:45;;;;;;;2.80;2.43;;;21.10;99.90;;;;;;4887297;29;20268;-80
2022/07/04 07:06:12;;;;;;;3.57;2.63;;;21.00;99.90;;;;;;4883508;29;20281;-80
2022/07/04 07:08:39;;;;;;;3.80;3.43;;;20.90;99.90;;;;;;4899962;29;20193;-80
2022/07/04 07:11:13;;;;;;;4.53;4.13;;;20.80;99.90;;;;;;4902746;29;20196;-79
2022/07/04 07:13:40;;;;;;;3.40;3.10;;;20.70;99.90;;;;;;4885403;29;20209;-79
2022/07/04 07:16:07;;;;;;;3.03;2.70;;;20.70;99.90;;;;;;4901880;29;20193;-80
2022/07/04 07:18:36;;;;;;;4.70;4.40;;;20.60;99.90;;;;;;4902411;29;20274;-79
2022/07/04 07:21:03;;;;;;;5.80;5.40;;;20.60;99.90;;;;;;4884042;29;20632;-80
2022/07/04 07:23:30;;;;;;;2.40;2.20;;;20.60;99.90;;;;;;4901307;29;20205;-80
2022/07/04 07:25:57;;;;;;;2.97;2.40;;;20.70;99.90;;;;;;4882028;29;20713;-80
2022/07/04 07:28:24;;;;;;;4.50;2.47;;;20.80;99.90;;;;;;4886418;29;20248;-80
2022/07/04 07:30:50;;;;;;;2.53;2.33;;;20.80;99.90;;;;;;4894402;29;21466;-80
2022/07/04 07:33:17;;;;;;;2.83;2.53;;;20.80;99.90;;;;;;4878842;29;20236;-79
2022/07/04 07:35:45;;;;;;;2.53;2.30;;;21.00;99.90;;;;;;4878860;29;20201;-78
2022/07/04 07:38:12;;;;;;;3.97;2.70;;;21.00;99.90;;;;;;4895886;29;20274;-78
2022/07/04 07:40:39;;;;;;;2.50;2.30;;;21.00;99.90;;;;;;4878566;29;20205;-79
2022/07/04 07:43:06;;;;;;;3.00;2.70;;;21.00;99.90;;;;;;4896490;29;20224;-78
2022/07/04 07:45:33;;;;;;;3.57;2.67;;;20.90;99.90;;;;;;4895972;29;20212;-80
2022/07/04 07:48:00;;;;;;;4.40;4.10;;;21.00;99.90;;;;;;4897734;29;20249;-80
2022/07/04 07:50:27;;;;;;;5.10;4.70;;;21.10;99.90;;;;;;4884233;29;20209;-80
2022/07/04 07:52:55;;;;;;;5.03;4.70;;;21.10;99.90;;;;;;4900846;29;20217;-80
2022/07/04 07:55:22;;;;;;;5.20;4.80;;;21.30;99.90;;;;;;4901124;29;20729;-80
2022/07/04 07:57:48;;;;;;;4.20;3.90;;;21.50;99.90;;;;;;4882426;29;20239;-80
2022/07/04 08:00:16;;;;;;;5.77;5.37;;;21.60;99.90;;;;;;4899549;29;20261;-80
2022/07/04 08:05:27;;;;;;;5.87;5.43;;;22.10;99.90;;;;;;4889957;29;20217;-80
2022/07/04 08:07:55;;;;;;;6.63;6.13;;;22.20;99.90;;;;;;4876792;29;20208;-78
2022/07/04 08:10:22;;;;;;;2.97;2.70;;;22.10;99.90;;;;;;4893403;29;20264;-79
2022/07/04 08:12:50;;;;;;;2.83;2.50;;;22.00;99.90;;;;;;4892962;29;20224;-79
2022/07/04 08:15:17;;;;;;;6.63;6.10;;;22.20;99.90;;;;;;4878146;29;20205;-79
2022/07/04 08:17:44;;;;;;;7.50;6.80;;;22.40;99.90;;;;;;4898431;29;20209;-79
2022/07/04 08:20:11;;;;;;;3.53;3.23;;;22.70;99.90;;;;;;4890834;29;20206;-80
2022/07/04 08:22:38;;;;;;;5.93;5.63;;;22.90;99.90;;;;;;4898192;29;20781;-80
2022/07/04 08:25:07;;;;;;;6.10;5.57;;;23.00;99.90;;;;;;4880919;29;20229;-80
2022/07/04 08:27:34;;;;;;;6.43;5.93;;;23.00;99.90;;;;;;4898140;29;20193;-79
2022/07/04 08:30:01;;;;;;;7.30;6.70;;;23.20;99.90;;;;;;4881382;29;20261;-80
2022/07/04 08:32:28;;;;;;;6.87;6.30;;;23.20;99.90;;;;;;4897580;29;20227;-79
2022/07/04 08:34:55;;;;;;;6.60;6.10;;;23.40;99.90;;;;;;4897656;29;20205;-79
2022/07/04 08:37:23;;;;;;;6.37;5.90;;;23.60;99.90;;;;;;4897330;29;20287;-80
2022/07/04 08:39:49;;;;;;;5.00;4.17;;;24.00;99.90;;;;;;4880449;29;20209;-79
2022/07/04 08:42:20;;;;;;;6.23;5.70;;;23.90;99.90;;;;;;4873489;29;20228;-78
2022/07/04 08:44:49;;;;;;;6.80;6.30;;;23.90;99.90;;;;;;4872611;29;20272;-78
2022/07/04 08:47:19;;;;;;;7.80;7.27;;;23.80;99.90;;;;;;4880042;29;20295;-79
2022/07/04 08:49:52;;;;;;;4.93;2.93;;;24.00;99.90;;;;;;4880541;29;20212;-79
2022/07/04 08:52:30;;;;;;;3.47;2.40;;;24.20;99.90;;;;;;4884229;29;20220;-79
2022/07/04 09:00:29;;;;;;;5.93;5.13;;;24.30;99.90;;;;;;4880766;29;20238;-79
2022/07/04 09:02:56;;;;;;;2.93;2.43;;;24.40;99.90;;;;;;4896163;29;20224;-78
2022/07/04 09:05:23;;;;;;;2.50;2.30;;;24.70;99.90;;;;;;4900191;29;20628;-79
2022/07/04 09:07:51;;;;;;;3.90;2.53;;;24.90;99.90;;;;;;4882000;29;20212;-79
2022/07/04 09:10:18;;;;;;;6.20;5.80;;;25.20;99.90;;;;;;4883506;29;20196;-79
2022/07/04 09:12:46;;;;;;;6.90;6.30;;;25.40;99.90;;;;;;4883586;29;20653;-80
2022/07/04 09:15:13;;;;;;;7.33;6.83;;;25.60;99.90;;;;;;4883961;29;20208;-79
2022/07/04 09:17:40;;;;;;;6.90;6.40;;;25.70;99.90;;;;;;4883511;29;20240;-79
2022/07/04 09:20:15;;;;;;;7.07;6.33;;;25.80;99.90;;;;;;4899761;29;20201;-78
2022/07/04 09:22:42;;;;;;;4.60;4.10;;;25.80;99.90;;;;;;4900147;29;20223;-79
2022/07/04 09:25:12;;;;;;;5.00;4.60;;;25.70;99.90;;;;;;4883259;29;20201;-78
2022/07/04 09:27:41;;;;;;;8.70;5.50;;;25.80;99.90;;;;;;4882279;29;20197;-79
2022/07/04 09:30:11;;;;;;;8.17;7.50;;;26.10;99.90;;;;;;4883168;29;20746;-78
2022/07/04 09:32:39;;;;;;;8.00;7.40;;;26.30;99.90;;;;;;4899817;29;20698;-79
2022/07/04 09:35:08;;;;;;;5.30;4.90;;;26.20;99.90;;;;;;4882506;29;20640;-79
2022/07/04 09:37:41;;;;;;;6.23;5.83;;;26.30;99.90;;;;;;4883531;29;20227;-79
2022/07/04 09:40:11;;;;;;;7.90;7.20;;;26.30;99.90;;;;;;4900486;29;20211;-78
2022/07/04 09:42:42;;;;;;;7.90;7.20;;;26.20;99.90;;;;;;4883194;29;20299;-78
2022/07/04 09:45:11;;;;;;;5.50;5.10;;;26.20;99.90;;;;;;4899537;29;20666;-78
2022/07/04 09:47:40;;;;;;;5.10;4.80;;;26.30;99.90;;;;;;4884989;29;20220;-78
2022/07/04 09:50:09;;;;;;;5.43;5.00;;;26.60;99.90;;;;;;4878524;29;20200;-79
2022/07/04 09:52:47;;;;;;;5.77;5.37;;;26.70;99.90;;;;;;4899633;29;20216;-80
2022/07/04 09:55:21;;;;;;;7.30;6.80;;;26.90;99.90;;;;;;4875718;29;20208;-78
2022/07/04 09:57:49;;;;;;;7.30;6.80;;;27.10;99.90;;;;;;4896250;29;20691;-78
2022/07/04 10:00:23;;;;;;;7.23;6.63;;;26.90;99.90;;;;;;4881906;29;20196;-78
2022/07/04 10:02:51;;;;;;;6.93;6.43;;;27.00;99.90;;;;;;4901229;29;20623;-80
2022/07/04 10:05:26;;;;;;;7.60;7.10;;;27.10;99.90;;;;;;4882269;29;20201;-78
2022/07/04 10:07:55;;;;;;;6.33;5.20;;;27.30;99.90;;;;;;4899205;29;20259;-80
2022/07/04 10:10:27;;;;;;;8.17;6.30;;;27.50;99.90;;;;;;4899471;29;20204;-79
2022/07/04 10:12:55;;;;;;;8.37;7.70;;;28.00;99.90;;;;;;4899352;29;20224;-78
2022/07/04 10:15:24;;;;;;;7.90;7.17;;;27.70;99.90;;;;;;4877386;29;20766;-79
2022/07/04 10:17:51;;;;;;;3.67;3.37;;;27.60;99.90;;;;;;4880249;29;20201;-79
2022/07/04 10:20:18;;;;;;;6.03;5.00;;;27.90;99.90;;;;;;4903307;29;20213;-80
2022/07/04 10:22:45;;;;;;;6.27;5.87;;;28.10;99.90;;;;;;4886178;29;20379;-81
2022/07/04 10:25:12;;;;;;;7.20;6.60;;;28.20;99.90;;;;;;4903519;29;20197;-80
2022/07/04 10:27:39;;;;;;;5.10;4.70;;;28.00;99.90;;;;;;4887743;29;20662;-79
2022/07/04 10:30:10;;;;;;;5.20;4.77;;;27.90;99.90;;;;;;4888460;29;20232;-80
2022/07/04 10:32:39;;;;;;;4.57;4.17;;;27.50;99.90;;;;;;4904199;29;20232;-80
2022/07/04 10:35:07;;;;;;;4.10;2.70;;;27.70;99.90;;;;;;4902717;29;20196;-79
2022/07/04 10:38:00;;;;;;;5.70;3.10;;;27.60;99.90;;;;;;4903116;29;20203;-80
2022/07/04 10:40:44;;;;;;;4.70;4.40;;;27.20;99.90;;;;;;4881277;29;20295;-81
2022/07/04 10:44:05;;;;;;;6.20;5.70;;;27.40;99.90;;;;;;4874382;29;20268;-79
2022/07/04 10:46:37;;;;;;;6.50;5.90;;;27.40;99.90;;;;;;4902693;29;20292;-79
2022/07/04 10:49:08;;;;;;;4.73;4.33;;;27.50;99.90;;;;;;4901972;29;20448;-79
2022/07/04 10:51:42;;;;;;;4.77;3.73;;;27.40;99.90;;;;;;4891403;29;20224;-79
2022/07/04 10:54:11;;;;;;;3.97;3.60;;;27.50;99.90;;;;;;4901735;29;20257;-80
2022/07/04 10:56:44;;;;;;;5.03;2.60;;;27.30;99.90;;;;;;4884886;29;20201;-79
2022/07/04 10:59:13;;;;;;;3.37;2.20;;;26.70;99.90;;;;;;4901242;29;20272;-80
2022/07/04 11:01:45;;;;;;;6.47;5.97;;;26.40;99.90;;;;;;4884475;29;20255;-79
2022/07/04 11:04:13;;;;;;;5.13;3.93;;;26.50;99.90;;;;;;4893668;29;20197;-79
2022/07/04 11:06:54;;;;;;;5.30;3.27;;;26.20;99.90;;;;;;4884092;29;20219;-80
2022/07/04 11:09:22;;;;;;;6.60;6.00;;;26.20;99.90;;;;;;4895064;29;20216;-79
2022/07/04 11:11:51;;;;;;;2.27;2.10;;;26.70;99.90;;;;;;4883847;29;20280;-79
2022/07/04 11:14:31;;;;;;;2.57;2.37;;;27.10;99.90;;;;;;4899464;29;20196;-80
2022/07/04 11:16:59;;;;;;;6.80;2.50;;;27.30;99.90;;;;;;4900353;29;20253;-79
2022/07/04 11:19:28;;;;;;;2.83;2.53;;;27.40;99.90;;;;;;4900264;29;20197;-79
2022/07/04 11:21:55;;;;;;;4.60;2.37;;;27.10;99.90;;;;;;4883426;29;20246;-79
2022/07/04 11:24:22;;;;;;;3.80;2.30;;;26.80;99.90;;;;;;4879463;29;20197;-79
2022/07/04 11:26:49;;;;;;;4.10;2.30;;;26.90;99.90;;;;;;4882710;29;20228;-79
2022/07/04 11:29:17;;;;;;;2.40;2.20;;;26.80;99.90;;;;;;4882955;29;20208;-80
2022/07/04 11:31:45;;;;;;;3.03;2.40;;;26.50;99.90;;;;;;4906269;23;20239;-83
2022/07/04 11:34:12;;;;;;;2.83;2.40;;;26.70;99.90;;;;;;4908422;29;20269;-83
2022/07/04 11:36:41;;;;;;;3.53;3.22;;;26.50;99.90;;;;;;4899624;29;20721;-82
2022/07/04 11:39:09;;;;;;;8.47;6.03;;;26.60;99.90;;;;;;4893045;29;20200;-81
2022/07/04 11:47:12;;;;;;;3.03;2.20;;;26.30;99.90;;;;;;4874351;29;20228;-80
2022/07/04 11:49:45;;;;;;;7.60;6.70;;;26.50;99.90;;;;;;4877003;29;20212;-80
2022/07/04 11:52:14;;;;;;;2.40;2.20;;;26.40;99.90;;;;;;4881931;29;20231;-80
2022/07/04 11:54:43;;;;;;;7.47;6.47;;;26.40;99.90;;;;;;4878352;29;20208;-81
2022/07/04 11:57:18;;;;;;;3.27;2.47;;;26.20;99.90;;;;;;4896395;29;20288;-81
2022/07/04 11:59:56;;;;;;;7.60;7.10;;;26.00;99.90;;;;;;4878865;29;20212;-79
2022/07/04 12:02:23;;;;;;;7.37;6.67;;;26.10;99.90;;;;;;4874411;29;20312;-80
2022/07/04 12:04:50;;;;;;;6.40;5.80;;;26.20;99.90;;;;;;4891454;29;20208;-79
2022/07/04 12:07:20;;;;;;;6.83;6.33;;;26.10;99.90;;;;;;4892994;29;20793;-80
2022/07/04 12:09:48;;;;;;;7.27;6.67;;;26.20;99.90;;;;;;4875911;29;20260;-79
2022/07/04 12:12:17;;;;;;;7.00;6.50;;;26.20;99.90;;;;;;4875229;29;20264;-79
2022/07/04 12:15:01;;;;;;;6.93;6.43;;;26.20;99.90;;;;;;4892884;29;20331;-80
2022/07/04 12:17:34;;;;;;;7.17;6.57;;;26.10;99.90;;;;;;4891098;29;20666;-79
2022/07/04 12:20:03;;;;;;;2.70;2.20;;;26.00;99.90;;;;;;4892345;29;20686;-82
2022/07/04 12:22:38;;;;;;;3.63;2.40;;;26.10;99.90;;;;;;4874314;29;20232;-80
2022/07/04 12:25:07;;;;;;;3.43;2.40;;;26.40;99.90;;;;;;4890860;29;20200;-80
2022/07/04 12:27:35;;;;;;;4.90;2.60;;;26.50;99.90;;;;;;4892219;29;20223;-78
2022/07/04 12:30:04;;;;;;;4.57;2.40;;;26.40;99.90;;;;;;4891634;29;20212;-80
2022/07/04 12:32:57;;;;;;;2.63;2.40;;;26.20;99.90;;;;;;4874143;29;20595;-79
2022/07/04 12:35:47;;;;;;;3.40;2.30;;;26.20;99.90;;;;;;4873913;29;20224;-80
2022/07/04 12:38:20;;;;;;;3.73;2.57;;;26.00;99.90;;;;;;4869780;29;20215;-80
2022/07/04 12:40:56;;;;;;;5.40;4.90;;;25.90;99.90;;;;;;4891461;29;20197;-80
2022/07/04 12:43:24;;;;;;;2.63;2.30;;;26.00;99.90;;;;;;4891377;29;20227;-79
2022/07/04 12:45:53;;;;;;;2.80;2.60;;;26.00;99.90;;;;;;4889906;29;20215;-80
2022/07/04 12:48:24;;;;;;;6.27;5.97;;;25.90;99.90;;;;;;4891633;29;20710;-80
2022/07/04 12:50:52;;;;;;;6.47;5.87;;;25.70;99.90;;;;;;4891297;29;20280;-79
2022/07/04 12:53:20;;;;;;;2.77;2.50;;;25.60;99.90;;;;;;4891649;29;20232;-80
2022/07/04 12:55:49;;;;;;;2.47;2.20;;;25.60;99.90;;;;;;4875219;29;20208;-79
2022/07/04 12:58:16;;;;;;;2.97;2.67;;;25.50;99.90;;;;;;4873780;29;20682;-81
2022/07/04 13:00:43;;;;;;;7.20;6.60;;;25.60;99.90;;;;;;4891042;29;20200;-81
2022/07/04 13:03:10;;;;;;;3.57;2.57;;;25.70;99.90;;;;;;4889738;29;20256;-80
2022/07/04 13:05:38;;;;;;;2.77;2.40;;;25.60;99.90;;;;;;4889610;29;20204;-82
2022/07/04 13:08:06;;;;;;;6.77;5.43;;;25.70;99.90;;;;;;4890146;29;20228;-79
2022/07/04 13:10:34;;;;;;;7.07;6.43;;;25.70;99.90;;;;;;4874589;29;20514;-77
2022/07/04 13:13:02;;;;;;;5.70;2.77;;;25.60;99.90;;;;;;4893293;29;20232;-79
2022/07/04 13:15:29;;;;;;;4.67;2.53;;;25.50;99.90;;;;;;4897637;29;20232;-78
2022/07/04 13:17:55;;;;;;;7.83;6.57;;;25.60;99.90;;;;;;4873716;29;20261;-78